Time;durP1;ratioP1;P1;durP2;ratioP2;P2;SDS_P1;SDS_P2;PMS_P1;PMS_P2;Temp;Humidity;BMP_temperature;BMP_pressure;BME280_temperature;BME280_humidity;BME280_pressure;Samples;Min_cycle;Max_cycle;Signal;HPM_P1;HPM_P2
2023/04/13 00:02:02;;;;;;;7.70;4.00;;;6.80;99.90;;;5.75;100.00;96230.44;4897525;29;20426;-76
2023/04/13 00:04:30;;;;;;;10.40;3.78;;;6.80;99.90;;;5.71;100.00;96232.75;4899073;29;20777;-75
2023/04/13 00:06:57;;;;;;;6.43;3.50;;;6.70;99.90;;;5.73;100.00;96235.13;4897585;29;20498;-75
2023/04/13 00:09:24;;;;;;;7.57;3.40;;;6.80;99.90;;;5.75;100.00;96244.34;4898495;29;20455;-75
2023/04/13 00:11:50;;;;;;;7.78;3.72;;;6.80;99.90;;;5.75;100.00;96252.22;4898816;29;20860;-75
2023/04/13 00:14:17;;;;;;;6.20;3.75;;;6.80;99.90;;;5.73;100.00;96246.44;4897800;29;20430;-76
2023/04/13 00:16:45;;;;;;;5.93;3.40;;;6.80;99.90;;;5.72;100.00;96254.53;4897693;29;20434;-75
2023/04/13 00:19:11;;;;;;;8.73;3.85;;;6.80;99.90;;;5.72;100.00;96257.97;4899462;29;20784;-76
2023/04/13 00:21:40;;;;;;;5.77;3.40;;;6.80;99.90;;;5.82;100.00;96273.03;4898907;29;20415;-76
2023/04/13 00:24:07;;;;;;;5.38;3.40;;;6.80;99.90;;;5.75;100.00;96280.31;4896417;29;20410;-75
2023/04/13 00:26:33;;;;;;;4.67;3.33;;;6.80;99.90;;;5.78;100.00;96275.38;4898411;29;20415;-75
2023/04/13 00:28:59;;;;;;;7.07;3.60;;;6.80;99.90;;;5.86;100.00;96268.09;4898109;29;20418;-75
2023/04/13 00:31:25;;;;;;;5.03;3.28;;;7.00;99.90;;;5.94;100.00;96267.69;4895501;29;20482;-75
2023/04/13 00:33:51;;;;;;;5.80;3.33;;;7.00;99.90;;;5.97;100.00;96259.28;4897849;29;20411;-75
2023/04/13 00:36:17;;;;;;;5.88;3.20;;;7.10;99.90;;;6.04;100.00;96258.03;4898036;29;20435;-75
2023/04/13 00:38:45;;;;;;;6.97;3.60;;;7.20;99.90;;;6.14;100.00;96262.59;4897935;29;20430;-75
2023/04/13 00:41:11;;;;;;;7.13;3.38;;;7.10;99.90;;;6.01;100.00;96260.38;4897807;29;20422;-75
2023/04/13 00:43:37;;;;;;;4.78;3.10;;;7.00;99.90;;;6.00;100.00;96249.09;4897820;29;20965;-75
2023/04/13 00:46:05;;;;;;;4.37;3.03;;;7.10;99.90;;;6.03;100.00;96251.19;4896584;29;21007;-75
2023/04/13 00:48:33;;;;;;;4.50;3.13;;;7.10;99.90;;;6.06;100.00;96245.47;4897760;29;20955;-75
2023/04/13 00:50:59;;;;;;;7.78;3.13;;;7.20;99.90;;;6.13;100.00;96253.13;4897678;29;20437;-75
2023/04/13 00:53:26;;;;;;;7.55;3.60;;;7.20;99.90;;;6.08;100.00;96247.84;4895116;29;20426;-75
2023/04/13 00:55:54;;;;;;;5.45;3.22;;;7.20;99.90;;;6.02;100.00;96246.97;4897930;29;20423;-75
2023/04/13 00:58:20;;;;;;;6.03;3.08;;;7.10;99.90;;;5.92;100.00;96235.63;4897134;29;20425;-75
2023/04/13 01:00:46;;;;;;;5.15;2.88;;;7.10;99.90;;;5.93;100.00;96232.75;4897981;29;20414;-75
2023/04/13 01:03:12;;;;;;;8.23;3.42;;;7.00;99.90;;;5.94;100.00;96242.19;4897723;29;20443;-75
2023/04/13 01:05:53;;;;;;;8.60;4.53;;;6.90;99.90;;;5.82;100.00;96244.94;4897829;29;20734;-76
2023/04/13 01:08:30;;;;;;;6.45;3.30;;;6.90;99.90;;;5.78;100.00;96253.59;4897353;29;20415;-75
2023/04/13 01:11:04;;;;;;;5.37;2.90;;;6.90;99.90;;;5.74;100.00;96262.97;4897368;29;20441;-75
2023/04/13 01:13:39;;;;;;;8.02;3.13;;;6.80;99.90;;;5.68;100.00;96256.88;4895599;29;20948;-75
2023/04/13 01:16:16;;;;;;;7.43;3.20;;;6.80;99.90;;;5.58;100.00;96263.84;4895243;29;20407;-75
2023/04/13 01:18:47;;;;;;;6.65;3.35;;;6.70;99.90;;;5.51;100.00;96265.88;4897544;29;20769;-75
2023/04/13 01:21:20;;;;;;;5.50;3.10;;;6.60;99.90;;;5.45;100.00;96265.03;4897183;29;20403;-75
2023/04/13 01:23:55;;;;;;;6.00;3.15;;;6.60;99.90;;;5.39;100.00;96261.56;4895259;29;20417;-75
2023/04/13 01:26:22;;;;;;;9.03;3.10;;;6.60;99.90;;;5.35;100.00;96257.03;4897435;29;20423;-75
2023/04/13 01:28:51;;;;;;;9.00;3.13;;;6.50;99.90;;;5.28;100.00;96254.59;4897394;29;20519;-75
2023/04/13 01:31:19;;;;;;;7.55;3.10;;;6.40;99.90;;;5.18;100.00;96251.88;4897167;29;20438;-75
2023/04/13 01:33:46;;;;;;;8.43;3.20;;;6.40;99.90;;;5.17;100.00;96258.16;4894810;29;20423;-75
2023/04/13 01:36:13;;;;;;;7.97;3.40;;;6.30;99.90;;;5.04;100.00;96253.25;4897341;29;20421;-75
2023/04/13 01:38:39;;;;;;;7.70;3.55;;;6.30;99.90;;;5.07;100.00;96255.41;4896250;29;20412;-75
2023/04/13 01:41:06;;;;;;;7.00;3.37;;;6.20;99.90;;;4.87;100.00;96260.41;4895022;29;20407;-75
2023/04/13 01:43:32;;;;;;;9.77;3.20;;;6.10;99.90;;;4.91;100.00;96243.94;4895927;29;20437;-75
2023/04/13 01:46:03;;;;;;;6.68;2.92;;;6.10;99.90;;;4.78;100.00;96241.66;4897236;29;20411;-75
2023/04/13 01:48:37;;;;;;;13.13;4.25;;;6.00;99.90;;;4.81;100.00;96245.63;4895670;29;20777;-75
2023/04/13 01:51:15;;;;;;;9.65;4.30;;;6.00;99.90;;;4.79;100.00;96240.63;4896954;29;20427;-74
2023/04/13 01:53:45;;;;;;;15.45;4.32;;;6.00;99.90;;;4.80;100.00;96241.44;4896497;29;20424;-74
2023/04/13 01:56:14;;;;;;;11.63;4.20;;;5.80;99.90;;;4.67;100.00;96232.84;4896584;29;20419;-74
2023/04/13 01:58:41;;;;;;;15.68;4.63;;;5.80;99.90;;;4.61;100.00;96238.28;4896605;29;20433;-74
2023/04/13 02:01:09;;;;;;;10.68;4.20;;;5.70;99.90;;;4.59;100.00;96229.84;4896385;29;20486;-74
2023/04/13 02:03:36;;;;;;;14.30;4.13;;;5.70;99.90;;;4.51;100.00;96230.28;4896499;29;20439;-74
2023/04/13 02:06:03;;;;;;;6.15;3.72;;;5.70;99.90;;;4.40;100.00;96218.88;4896361;29;20826;-74
2023/04/13 02:08:30;;;;;;;13.63;3.75;;;5.60;99.90;;;4.37;100.00;96214.09;4895586;29;20436;-74
2023/04/13 02:10:56;;;;;;;7.93;3.67;;;5.60;99.90;;;4.43;100.00;96217.59;4896001;29;20430;-74
2023/04/13 02:13:24;;;;;;;12.15;4.32;;;5.70;99.90;;;4.50;100.00;96229.50;4896050;29;20514;-74
2023/04/13 02:15:50;;;;;;;7.20;3.70;;;5.70;99.90;;;4.43;100.00;96228.06;4896286;29;20464;-74
2023/04/13 02:18:17;;;;;;;9.02;3.70;;;5.70;99.90;;;4.41;100.00;96225.69;4896338;29;20406;-74
2023/04/13 02:20:43;;;;;;;6.63;4.13;;;5.60;99.90;;;4.40;100.00;96231.97;4895902;29;20885;-74
2023/04/13 02:23:09;;;;;;;5.93;3.33;;;5.60;99.90;;;4.38;100.00;96235.84;4895860;29;20413;-74
2023/04/13 02:25:35;;;;;;;6.93;3.40;;;5.60;99.90;;;4.37;100.00;96242.13;4896150;29;20411;-74
2023/04/13 02:28:01;;;;;;;7.47;3.42;;;5.60;99.90;;;4.31;100.00;96232.59;4896017;29;20845;-74
2023/04/13 02:30:38;;;;;;;15.38;4.55;;;5.50;99.90;;;4.33;100.00;96241.81;5117259;27;20765;-74
2023/04/13 02:33:05;;;;;;;29.73;5.25;;;5.50;99.90;;;4.22;100.00;96248.72;5123721;28;20459;-74
2023/04/13 02:35:32;;;;;;;34.40;5.33;;;5.40;99.90;;;4.18;100.00;96247.63;5108142;28;20445;-74
2023/04/13 02:37:59;;;;;;;15.38;5.10;;;5.40;99.90;;;4.24;100.00;96251.88;5108053;28;20477;-75
2023/04/13 02:40:26;;;;;;;9.50;4.23;;;5.40;99.90;;;4.13;100.00;96246.75;5106720;28;20408;-75
2023/04/13 02:42:52;;;;;;;9.18;4.15;;;5.40;99.90;;;4.04;100.00;96246.34;5108248;28;20461;-75
2023/04/13 02:45:18;;;;;;;7.90;3.70;;;5.30;99.90;;;3.99;100.00;96246.25;5108471;28;20397;-75
2023/04/13 02:47:46;;;;;;;25.02;5.65;;;5.20;99.90;;;4.12;100.00;96240.72;5108098;28;20840;-75
2023/04/13 02:50:12;;;;;;;12.32;4.22;;;5.30;99.90;;;3.89;100.00;96246.09;5107698;28;20409;-74
2023/04/13 02:52:38;;;;;;;13.48;4.53;;;5.20;99.90;;;3.92;100.00;96242.19;5107871;28;20905;-75
2023/04/13 02:55:06;;;;;;;15.33;5.40;;;5.20;99.90;;;3.97;100.00;96243.09;5107801;28;20492;-74
2023/04/13 02:57:33;;;;;;;5.88;3.65;;;5.10;99.90;;;3.78;100.00;96237.25;5107949;28;20429;-75
2023/04/13 02:59:59;;;;;;;6.97;3.60;;;5.00;99.90;;;3.80;100.00;96239.66;5140624;27;20386;-74
2023/04/13 03:02:26;;;;;;;23.42;5.40;;;5.00;99.90;;;3.91;100.00;96238.00;5107652;28;20424;-74
2023/04/13 03:04:54;;;;;;;9.25;4.20;;;5.10;99.90;;;3.84;100.00;96240.75;5107751;28;20397;-74
2023/04/13 03:07:21;;;;;;;15.05;5.18;;;5.10;99.90;;;3.84;100.00;96245.97;5107769;28;20526;-74
2023/04/13 03:09:47;;;;;;;14.87;5.23;;;5.10;99.90;;;3.83;100.00;96252.28;5107551;28;20497;-74
2023/04/13 03:12:13;;;;;;;17.85;5.30;;;5.10;99.90;;;3.69;100.00;96246.50;5107345;28;20472;-74
2023/04/13 03:14:39;;;;;;;6.43;3.72;;;5.00;99.90;;;3.66;100.00;96254.84;5107520;28;20402;-74
2023/04/13 03:17:06;;;;;;;13.02;4.72;;;4.90;99.90;;;3.73;100.00;96252.09;5106130;28;20448;-74
2023/04/13 03:19:34;;;;;;;16.42;5.45;;;5.00;99.90;;;3.75;100.00;96258.69;5107362;28;20393;-74
2023/04/13 03:22:02;;;;;;;7.72;3.95;;;4.90;99.90;;;3.61;100.00;96259.22;5107271;28;20929;-74
2023/04/13 03:24:27;;;;;;;18.25;5.35;;;4.90;99.90;;;3.62;100.00;96261.56;5107078;28;20476;-74
2023/04/13 03:26:55;;;;;;;9.10;4.13;;;4.90;99.90;;;3.57;100.00;96266.72;5107242;28;20397;-74
2023/04/13 03:29:22;;;;;;;9.60;3.93;;;4.80;99.90;;;3.63;100.00;96267.59;5106642;28;20985;-74
2023/04/13 03:31:47;;;;;;;10.43;4.70;;;4.90;99.90;;;3.65;100.00;96261.13;5122881;28;20401;-74
2023/04/13 03:34:13;;;;;;;9.50;3.77;;;4.80;99.90;;;3.56;100.00;96253.88;5107057;28;20397;-74
2023/04/13 03:36:39;;;;;;;11.52;4.90;;;4.80;99.90;;;3.56;100.00;96266.94;5105974;28;20397;-74
2023/04/13 03:39:07;;;;;;;9.05;4.45;;;4.80;99.90;;;3.58;100.00;96268.31;5107128;28;20389;-74
2023/04/13 03:41:33;;;;;;;11.70;5.05;;;4.80;99.90;;;3.65;100.00;96270.78;5095449;28;20439;-74
2023/04/13 03:43:58;;;;;;;9.77;5.00;;;4.80;99.90;;;3.59;100.00;96272.53;5093231;28;20425;-74
2023/04/13 03:46:26;;;;;;;14.57;5.45;;;4.80;99.90;;;3.62;100.00;96269.41;5093336;28;20899;-74
2023/04/13 03:48:51;;;;;;;13.18;5.70;;;4.90;99.90;;;3.64;100.00;96280.44;5108991;28;20771;-74
2023/04/13 03:51:17;;;;;;;11.00;5.50;;;4.80;99.90;;;3.68;100.00;96281.59;5093156;28;20410;-74
2023/04/13 03:53:43;;;;;;;12.50;5.93;;;4.80;99.90;;;3.71;100.00;96285.53;5093193;28;20394;-74
2023/04/13 03:56:10;;;;;;;9.83;4.80;;;4.90;99.90;;;3.65;100.00;96291.72;5093148;28;20750;-74
2023/04/13 03:58:37;;;;;;;8.75;5.05;;;4.80;99.90;;;3.72;100.00;96292.38;5093239;28;20409;-74
2023/04/13 04:01:03;;;;;;;16.25;5.82;;;4.90;99.90;;;3.92;100.00;96294.53;5092930;28;20402;-74
2023/04/13 04:03:29;;;;;;;10.75;4.90;;;5.00;99.90;;;3.91;100.00;96298.22;5092872;28;20398;-74
2023/04/13 04:05:55;;;;;;;12.48;5.28;;;5.10;99.90;;;4.01;100.00;96299.16;5093177;28;20902;-75
2023/04/13 04:08:21;;;;;;;12.35;5.28;;;5.20;99.90;;;4.02;100.00;96306.00;5092974;28;20410;-74
2023/04/13 04:10:47;;;;;;;9.43;5.45;;;5.20;99.90;;;4.15;100.00;96308.31;5092768;28;20425;-74
2023/04/13 04:13:14;;;;;;;9.20;4.10;;;5.30;99.90;;;4.16;100.00;96298.63;5092758;28;20827;-74
2023/04/13 04:15:40;;;;;;;11.80;5.60;;;5.30;99.90;;;4.24;100.00;96303.47;5092844;28;20465;-74
2023/04/13 04:18:06;;;;;;;9.80;4.90;;;5.40;99.90;;;4.34;100.00;96308.09;5089930;28;20410;-74
2023/04/13 04:20:32;;;;;;;16.80;6.40;;;5.50;99.90;;;4.41;100.00;96303.50;5092994;28;20394;-74
2023/04/13 04:23:00;;;;;;;13.45;6.45;;;5.50;99.90;;;4.43;100.00;96289.13;5092331;28;20445;-74
2023/04/13 04:25:26;;;;;;;15.70;6.38;;;5.50;99.90;;;4.41;100.00;96295.63;5092493;28;20442;-74
2023/04/13 04:27:56;;;;;;;8.70;4.97;;;5.60;99.90;;;4.45;100.00;96296.72;5092385;28;20895;-74
2023/04/13 04:30:28;;;;;;;17.50;6.85;;;5.60;99.90;;;4.50;100.00;96302.06;5091915;28;20410;-75
2023/04/13 04:32:55;;;;;;;15.82;6.40;;;5.60;99.90;;;4.51;100.00;96309.66;5092021;28;20485;-74
2023/04/13 04:35:24;;;;;;;15.18;6.00;;;5.60;99.90;;;4.54;100.00;96303.16;5092179;28;20402;-74
2023/04/13 04:37:51;;;;;;;15.25;6.63;;;5.70;99.90;;;4.59;100.00;96300.63;5092159;28;20447;-74
2023/04/13 04:40:17;;;;;;;18.17;6.78;;;5.70;99.90;;;4.60;100.00;96303.00;5092208;28;20390;-74
2023/04/13 04:42:42;;;;;;;13.02;6.47;;;5.70;99.90;;;4.62;100.00;96316.66;5091926;28;20421;-75
2023/04/13 04:45:15;;;;;;;11.37;5.53;;;5.80;99.90;;;4.65;100.00;96310.97;5092009;28;20895;-74
2023/04/13 04:47:43;;;;;;;14.00;6.10;;;5.80;99.90;;;4.66;100.00;96314.38;5108119;28;20421;-74
2023/04/13 04:50:11;;;;;;;15.32;6.55;;;5.80;99.90;;;4.73;100.00;96320.25;5091793;28;20414;-75
2023/04/13 04:52:38;;;;;;;18.58;6.82;;;5.80;99.90;;;4.75;100.00;96320.78;5090938;28;20394;-74
2023/04/13 04:55:05;;;;;;;12.45;5.50;;;5.90;99.90;;;4.73;100.00;96315.00;5091933;28;20435;-74
2023/04/13 04:57:32;;;;;;;14.45;5.38;;;5.80;99.90;;;4.76;100.00;96316.34;5091894;28;20397;-74
2023/04/13 04:59:58;;;;;;;18.60;6.70;;;5.90;99.90;;;4.81;100.00;96317.19;5092132;28;20447;-75
2023/04/13 05:02:24;;;;;;;19.02;7.30;;;5.90;99.90;;;4.87;100.00;96324.13;5092037;28;20394;-75
2023/04/13 05:04:52;;;;;;;16.75;6.15;;;6.00;99.90;;;4.88;100.00;96311.81;5091722;28;20398;-74
2023/04/13 05:07:18;;;;;;;21.65;6.70;;;6.00;99.90;;;4.94;100.00;96309.00;5091971;28;20898;-74
2023/04/13 05:09:44;;;;;;;17.20;5.57;;;6.00;99.90;;;4.95;100.00;96309.81;5091149;28;20444;-75
2023/04/13 05:12:10;;;;;;;13.93;5.82;;;6.00;99.90;;;4.99;100.00;96310.91;5091461;28;20759;-74
2023/04/13 05:14:36;;;;;;;16.13;5.82;;;6.10;99.90;;;5.04;100.00;96309.13;5091320;28;20796;-74
2023/04/13 05:17:02;;;;;;;18.50;5.90;;;6.10;99.90;;;5.08;100.00;96314.69;5091048;28;20405;-74
2023/04/13 05:19:28;;;;;;;10.98;5.03;;;6.20;99.90;;;5.08;100.00;96309.44;5088810;28;20788;-74
2023/04/13 05:21:55;;;;;;;14.87;5.13;;;6.20;99.90;;;5.09;100.00;96307.63;5096293;28;20539;-74
2023/04/13 05:24:21;;;;;;;15.93;5.60;;;6.20;99.90;;;5.10;100.00;96304.75;5101151;28;20408;-75
2023/04/13 05:26:47;;;;;;;17.83;5.87;;;6.20;99.90;;;5.10;100.00;96314.47;5098320;28;20446;-75
2023/04/13 05:29:13;;;;;;;14.95;5.47;;;6.20;99.90;;;5.11;100.00;96319.47;5095674;28;20855;-75
2023/04/13 05:31:39;;;;;;;18.90;5.28;;;6.20;99.90;;;5.14;100.00;96315.56;5089980;28;20402;-76
2023/04/13 05:34:05;;;;;;;13.48;4.97;;;6.20;99.90;;;5.15;100.00;96317.13;5090397;28;20468;-76
2023/04/13 05:36:31;;;;;;;14.30;5.30;;;6.20;99.90;;;5.18;100.00;96321.91;5090988;28;20404;-76
2023/04/13 05:39:00;;;;;;;15.60;5.68;;;6.30;99.90;;;5.26;100.00;96324.88;5090571;28;20748;-76
2023/04/13 05:41:26;;;;;;;17.52;5.28;;;6.30;99.90;;;5.24;100.00;96326.19;5090690;28;20493;-76
2023/04/13 05:43:52;;;;;;;15.30;4.53;;;6.30;99.90;;;5.26;100.00;96332.75;5090609;28;20805;-76
2023/04/13 05:46:18;;;;;;;24.10;5.95;;;6.30;99.90;;;5.21;100.00;96329.28;5090132;28;20485;-76
2023/04/13 05:48:44;;;;;;;23.50;5.43;;;6.30;99.90;;;5.11;100.00;96329.97;5090673;28;20425;-75
2023/04/13 05:51:11;;;;;;;12.35;4.80;;;6.20;99.90;;;5.06;100.00;96332.50;5090395;28;20493;-76
2023/04/13 05:53:37;;;;;;;17.33;4.95;;;6.10;99.90;;;5.04;100.00;96340.59;5090505;28;20398;-76
2023/04/13 05:56:06;;;;;;;16.55;5.38;;;6.10;99.90;;;5.05;100.00;96336.94;5090812;28;20434;-76
2023/04/13 05:58:33;;;;;;;18.83;5.90;;;6.10;99.90;;;5.03;100.00;96340.88;5090473;28;20794;-76
2023/04/13 06:01:00;;;;;;;18.00;5.00;;;6.00;99.90;;;4.99;100.00;96339.75;5090199;28;20429;-75
2023/04/13 06:03:28;;;;;;;11.40;4.32;;;6.00;99.90;;;5.09;100.00;96336.47;5090055;28;20786;-76
2023/04/13 06:05:56;;;;;;;18.63;5.10;;;6.10;99.90;;;5.14;100.00;96347.03;5090434;28;20452;-76
2023/04/13 06:08:22;;;;;;;15.00;4.95;;;6.10;99.90;;;5.20;100.00;96340.81;5106474;28;20813;-75
2023/04/13 06:10:48;;;;;;;21.10;5.30;;;6.20;99.90;;;5.15;100.00;96356.50;5090263;28;20489;-76
2023/04/13 06:13:16;;;;;;;12.57;4.13;;;6.10;99.90;;;5.23;100.00;96348.22;5088891;28;20481;-75
2023/04/13 06:15:42;;;;;;;21.80;5.00;;;6.30;99.90;;;5.31;100.00;96340.72;5090150;28;20398;-76
2023/04/13 06:18:08;;;;;;;11.50;4.30;;;6.40;99.90;;;5.33;100.00;96346.53;5090191;28;20452;-75
2023/04/13 06:20:34;;;;;;;15.17;4.67;;;6.30;99.90;;;5.41;100.00;96353.94;5088423;28;20404;-75
2023/04/13 06:23:00;;;;;;;16.50;5.10;;;6.50;99.90;;;5.44;100.00;96348.22;5090180;28;20398;-75
2023/04/13 06:25:26;;;;;;;19.58;4.65;;;6.50;99.90;;;5.37;100.00;96347.59;5088980;28;20511;-76
2023/04/13 06:27:53;;;;;;;18.27;4.70;;;6.40;99.90;;;5.29;100.00;96349.84;5088928;28;20915;-75
2023/04/13 06:30:20;;;;;;;17.05;4.78;;;6.30;99.90;;;5.24;100.00;96353.22;5094131;28;20413;-75
2023/04/13 06:32:46;;;;;;;14.43;4.25;;;6.30;99.90;;;5.25;100.00;96354.00;5093958;28;20948;-75
2023/04/13 06:35:12;;;;;;;22.13;4.80;;;6.30;99.90;;;5.26;100.00;96356.38;5096064;28;20394;-75
2023/04/13 06:37:38;;;;;;;16.92;4.22;;;6.30;99.90;;;5.29;100.00;96362.97;5100365;28;20445;-74
2023/04/13 06:40:09;;;;;;;23.20;5.23;;;6.30;99.90;;;5.32;100.00;96358.06;5098696;28;20432;-75
2023/04/13 06:42:35;;;;;;;19.88;4.30;;;6.30;99.90;;;5.22;100.00;96347.41;5097277;28;20800;-74
2023/04/13 06:45:01;;;;;;;14.07;4.55;;;6.20;99.90;;;5.25;100.00;96354.00;5094773;28;20409;-75
2023/04/13 06:47:29;;;;;;;11.55;3.67;;;6.20;99.90;;;5.41;100.00;96368.94;5094978;28;20393;-75
2023/04/13 06:49:55;;;;;;;15.00;4.53;;;6.40;99.90;;;5.48;100.00;96368.75;5097286;28;20413;-75
2023/04/13 06:52:21;;;;;;;25.07;4.87;;;6.50;99.90;;;5.58;100.00;96372.28;5108933;28;20772;-75
2023/04/13 06:54:47;;;;;;;18.67;4.07;;;6.60;99.90;;;5.67;100.00;96378.69;5094381;28;20409;-75
2023/04/13 06:57:13;;;;;;;15.90;3.75;;;6.60;99.90;;;5.94;100.00;96378.00;5094519;28;20691;-75
2023/04/13 06:59:39;;;;;;;14.73;3.70;;;6.80;99.90;;;6.09;100.00;96368.41;5089689;28;20775;-75
2023/04/13 07:02:05;;;;;;;14.75;4.07;;;7.10;99.90;;;6.10;100.00;96372.63;5091551;28;20410;-75
2023/04/13 07:04:32;;;;;;;23.70;4.03;;;7.10;99.90;;;6.37;100.00;96374.47;5092101;28;20413;-75
2023/04/13 07:06:58;;;;;;;16.25;3.85;;;7.30;99.90;;;6.38;100.00;96373.44;5090329;28;20887;-75
2023/04/13 07:09:24;;;;;;;17.17;3.58;;;7.40;99.90;;;6.52;100.00;96377.25;5091322;28;20421;-74
2023/04/13 07:11:50;;;;;;;15.40;3.95;;;7.50;99.90;;;6.13;100.00;96371.34;5090969;28;20551;-75
2023/04/13 07:14:16;;;;;;;16.97;3.30;;;7.10;99.90;;;5.89;100.00;96368.22;5091200;28;20441;-74
2023/04/13 07:16:42;;;;;;;20.75;3.45;;;6.90;99.90;;;6.08;100.00;96366.06;5092956;28;20925;-75
2023/04/13 07:19:08;;;;;;;15.07;3.30;;;7.00;99.90;;;5.98;100.00;96366.72;5094177;28;20420;-74
2023/04/13 07:21:36;;;;;;;14.63;3.38;;;6.90;99.90;;;6.18;100.00;96371.41;5094205;28;20405;-74
2023/04/13 07:24:03;;;;;;;15.90;3.28;;;7.10;99.90;;;6.27;100.00;96367.28;5093912;28;20394;-74
2023/04/13 07:26:29;;;;;;;10.50;2.88;;;7.20;99.90;;;6.34;100.00;96364.47;5093965;28;20398;-74
2023/04/13 07:28:54;;;;;;;13.27;3.42;;;7.30;99.90;;;6.39;100.00;96362.66;5093687;28;20444;-74
2023/04/13 07:31:22;;;;;;;11.50;3.45;;;7.30;99.90;;;6.59;100.00;96367.31;5108275;28;20398;-75
2023/04/13 07:33:48;;;;;;;17.48;3.40;;;7.50;99.90;;;6.89;100.00;96364.13;5095394;28;20430;-75
2023/04/13 07:36:14;;;;;;;12.32;3.05;;;7.80;99.90;;;6.75;100.00;96362.97;5095019;28;20877;-74
2023/04/13 07:38:41;;;;;;;12.87;2.97;;;7.60;99.90;;;6.83;100.00;96367.78;5113618;28;20894;-75
2023/04/13 07:41:07;;;;;;;11.70;3.17;;;7.70;99.90;;;6.81;100.00;96368.03;5113886;28;20457;-75
2023/04/13 07:43:34;;;;;;;13.77;2.95;;;7.80;99.90;;;7.11;100.00;96370.06;5113753;28;20404;-75
2023/04/13 07:46:00;;;;;;;15.32;2.78;;;8.00;99.90;;;7.23;100.00;96369.88;5113983;28;20400;-75
2023/04/13 07:48:26;;;;;;;11.07;2.72;;;8.10;99.90;;;7.05;100.00;96373.72;5113650;28;20429;-75
2023/04/13 07:50:52;;;;;;;11.18;2.90;;;7.90;99.90;;;6.82;100.00;96364.34;5113575;28;20921;-74
2023/04/13 07:53:18;;;;;;;13.70;3.05;;;7.70;99.90;;;6.80;100.00;96374.31;5113737;28;20404;-74
2023/04/13 07:55:45;;;;;;;15.77;3.65;;;7.70;99.90;;;6.95;100.00;96365.75;5113753;28;20428;-74
2023/04/13 07:58:11;;;;;;;17.45;3.22;;;7.90;99.90;;;6.73;100.00;96367.69;5113768;28;20400;-76
2023/04/13 08:00:37;;;;;;;15.20;3.08;;;7.70;99.90;;;6.66;100.00;96373.16;5113553;28;20431;-75
2023/04/13 08:03:03;;;;;;;10.30;3.28;;;7.60;99.90;;;6.58;100.00;96365.72;5113594;28;20431;-76
2023/04/13 08:05:28;;;;;;;13.37;3.33;;;7.50;99.90;;;6.69;100.00;96364.00;5101993;28;20934;-75
2023/04/13 08:07:54;;;;;;;14.40;3.65;;;7.60;99.90;;;6.89;100.00;96364.13;5094872;28;20908;-75
2023/04/13 08:10:20;;;;;;;20.25;3.60;;;7.80;99.90;;;6.76;100.00;96368.00;5092333;28;20416;-75
2023/04/13 08:12:48;;;;;;;11.80;3.08;;;7.70;99.90;;;6.91;100.00;96375.22;5092480;28;20402;-75
2023/04/13 08:15:14;;;;;;;20.35;3.10;;;7.80;99.90;;;6.91;100.00;96377.84;5090369;28;20406;-75
2023/04/13 08:17:40;;;;;;;17.02;3.67;;;7.80;99.90;;;7.01;100.00;96377.88;5088433;28;20406;-75
2023/04/13 08:20:08;;;;;;;13.48;3.05;;;7.90;99.90;;;7.15;100.00;96379.03;5091628;28;20682;-75
2023/04/13 08:22:35;;;;;;;16.77;3.20;;;8.10;99.90;;;7.20;100.00;96365.94;5089439;28;20463;-75
2023/04/13 08:25:01;;;;;;;13.32;2.65;;;8.10;99.90;;;7.55;100.00;96385.59;5092601;28;20723;-75
2023/04/13 08:27:27;;;;;;;13.88;3.00;;;8.40;99.90;;;7.85;100.00;96380.47;5092362;28;20895;-75
2023/04/13 08:29:55;;;;;;;20.20;3.33;;;8.70;99.90;;;7.84;100.00;96385.97;5098535;28;20519;-75
2023/04/13 08:32:21;;;;;;;16.40;3.10;;;8.80;99.90;;;7.89;100.00;96383.38;5095213;28;20394;-75
2023/04/13 08:34:47;;;;;;;14.80;2.93;;;8.70;99.90;;;8.12;100.00;96385.53;5092299;28;20394;-76
2023/04/13 08:37:14;;;;;;;12.25;2.78;;;8.90;99.90;;;8.23;100.00;96389.81;5090552;28;21438;-75
2023/04/13 08:39:40;;;;;;;12.35;2.80;;;9.00;99.90;;;8.27;100.00;96387.44;5092620;28;20392;-75
2023/04/13 08:42:06;;;;;;;12.32;2.67;;;9.10;99.90;;;8.06;100.00;96387.38;5090267;28;20410;-75
2023/04/13 08:44:36;;;;;;;9.43;2.60;;;9.00;99.90;;;8.14;100.00;96396.63;5096262;28;20492;-75
2023/04/13 08:47:04;;;;;;;13.33;2.70;;;9.00;99.90;;;7.92;100.00;96386.28;5092609;28;20713;-79
2023/04/13 08:49:31;;;;;;;15.52;2.80;;;8.90;99.90;;;8.07;100.00;96407.41;5092160;28;20502;-75
2023/04/13 08:51:59;;;;;;;12.48;2.50;;;8.90;99.90;;;7.90;100.00;96406.81;5091129;28;20435;-75
2023/04/13 08:54:27;;;;;;;11.05;2.78;;;8.70;99.90;;;7.62;100.00;96397.47;5093740;28;20396;-75
2023/04/13 08:56:56;;;;;;;14.95;3.40;;;8.50;99.90;;;7.58;100.00;96393.78;5086699;28;20906;-75
2023/04/13 08:59:26;;;;;;;19.80;2.78;;;8.50;99.90;;;7.43;100.00;96396.34;5091708;28;20948;-75
2023/04/13 09:01:53;;;;;;;12.88;2.95;;;8.40;99.90;;;7.34;100.00;96392.59;5092235;28;20432;-75
2023/04/13 09:04:24;;;;;;;18.02;2.88;;;8.20;99.90;;;7.36;100.00;96398.41;5091994;28;20402;-75
2023/04/13 09:06:51;;;;;;;14.50;2.75;;;8.10;99.90;;;7.29;100.00;96400.47;5089173;28;20402;-75
2023/04/13 09:09:19;;;;;;;16.27;3.42;;;8.10;99.90;;;7.21;100.00;96399.09;5122701;27;20425;-75
2023/04/13 09:11:45;;;;;;;15.77;2.93;;;8.20;99.90;;;7.27;100.00;96397.28;5086774;28;20406;-75
2023/04/13 09:14:11;;;;;;;10.50;2.60;;;8.20;99.90;;;7.58;100.00;96406.94;5086565;28;20455;-75
2023/04/13 09:16:39;;;;;;;11.52;2.60;;;8.40;99.90;;;7.49;100.00;96397.94;5088146;28;20390;-75
2023/04/13 09:19:07;;;;;;;7.25;2.33;;;8.40;99.90;;;7.48;100.00;96406.09;5085048;28;20864;-76
2023/04/13 09:21:39;;;;;;;13.20;2.75;;;8.30;99.90;;;7.73;100.00;96390.44;5087938;28;20405;-76
2023/04/13 09:24:07;;;;;;;11.03;2.63;;;8.60;99.90;;;7.82;100.00;96385.47;5090821;28;20496;-75
2023/04/13 09:26:41;;;;;;;10.05;2.25;;;8.70;99.90;;;8.28;100.00;96391.66;5088931;28;20413;-75
2023/04/13 09:29:10;;;;;;;7.95;2.45;;;9.10;99.90;;;8.53;100.00;96381.19;5086651;28;20431;-76
2023/04/13 09:31:38;;;;;;;12.88;2.63;;;9.30;99.90;;;8.53;100.00;96378.53;5098732;28;20393;-76
2023/04/13 09:34:05;;;;;;;9.18;2.22;;;9.40;99.90;;;8.65;100.00;96380.91;5090686;28;20923;-76
2023/04/13 09:36:32;;;;;;;6.78;2.20;;;9.50;99.90;;;8.84;100.00;96377.50;5089742;28;20434;-76
2023/04/13 09:38:59;;;;;;;12.43;2.60;;;9.70;99.90;;;8.83;100.00;96378.56;5090374;28;20402;-76
2023/04/13 09:41:31;;;;;;;6.95;2.30;;;9.80;99.90;;;8.87;100.00;96382.25;5090266;28;20499;-76
2023/04/13 09:43:57;;;;;;;6.03;1.73;;;9.70;99.90;;;8.89;100.00;96382.78;5089134;28;20402;-76
2023/04/13 09:46:23;;;;;;;8.93;2.00;;;9.80;99.90;;;8.82;100.00;96384.09;5089681;28;20398;-76
2023/04/13 09:48:58;;;;;;;15.23;2.90;;;9.60;99.90;;;9.04;100.00;96381.19;5091491;28;20398;-76
2023/04/13 09:51:26;;;;;;;8.38;2.40;;;9.80;99.90;;;8.65;100.00;96388.81;5090698;28;20878;-75
2023/04/13 09:53:52;;;;;;;7.95;2.50;;;9.60;99.90;;;8.64;100.00;96382.78;5117140;27;20749;-75
2023/04/13 09:56:20;;;;;;;10.57;2.35;;;9.50;99.90;;;8.33;100.00;96371.41;5107564;28;20394;-75
2023/04/13 09:58:46;;;;;;;9.63;2.22;;;9.30;99.90;;;8.32;100.00;96384.84;5096402;28;20402;-74
2023/04/13 10:01:15;;;;;;;14.07;3.38;;;9.20;99.90;;;8.22;100.00;96380.31;5088927;28;20477;-74
2023/04/13 10:03:42;;;;;;;12.75;2.40;;;9.20;99.90;;;8.58;100.00;96373.25;5088792;28;20489;-74
2023/04/13 10:06:08;;;;;;;9.63;2.20;;;9.40;99.90;;;8.71;100.00;96379.88;5090656;28;20398;-75
2023/04/13 10:08:36;;;;;;;10.73;2.30;;;9.50;99.90;;;8.81;100.00;96372.75;5090823;28;20398;-75
2023/04/13 10:11:03;;;;;;;11.57;2.30;;;9.70;99.90;;;8.79;100.00;96360.91;5090588;28;20445;-74
2023/04/13 10:13:36;;;;;;;9.33;3.00;;;9.70;99.90;;;8.80;100.00;96373.81;5090738;28;20405;-74
2023/04/13 10:16:32;;;;;;;14.05;2.45;;;9.70;99.90;;;8.52;100.00;96366.41;5090828;28;20447;-74
2023/04/13 10:19:02;;;;;;;13.38;2.67;;;9.40;99.90;;;8.67;100.00;96366.41;5090827;28;20884;-74
2023/04/13 10:21:32;;;;;;;8.47;2.50;;;9.60;99.90;;;8.74;100.00;96353.75;5090738;28;20424;-76